Terminal Aerodrome Forecast
Issued by NWS

Home | Current Version | Previous Version | Text Only | Print | Product List | Glossary On
Versions: 1 2 3 4 5 6 7 8 9 10 11 12 13 14 15 16 17
000
FTUS42 TJSJ 172323
TAFJPS
TAF
TJPS 172323Z 1800/1824 08011KT P6SM -RA FEW030 SCT050 BKN080
     FM180300 07008KT P6SM VCSH SCT030 BKN060
     FM181500 10010KT P6SM FEW030 SCT060
      AMD NOT SKED TIL 180300=

USA.gov is the U.S. government's official web portal to all federal, state and local government web resources and services.